Holberg, Canada
Current Conditions -  °F | °C
As of 11:00 PM on Tuesday 21 Oct 2014 (Local Time) from CYZT Reporting Station
Light Rain Light Rain  
Wind Chill: 50°   Ceiling: 4800
Heat Index: 50°   Visibility: 10mi
Dew Point: 48°   Wind: 6mph
Humidity: 94%   Direction: 110°ESE
Pressure: 29.42"   Gusts: NA
Location:  50.65°N, 128.02°W
Report Text: CYZT 220600Z 11005KT 070V140 10SM -RA FEW013 SCT032 OVC048 10/09 A2942 RMK SC2SC2SC4 SLP963
Loading
Personal Weather Stations






























Interactive Weather Map
Tropical Storm Tracking
New forecast layout! Learn more

10-Day Weather Forecast

Advertisements
Track Severe Weather on mobile